Time;durP1;ratioP1;P1;durP2;ratioP2;P2;SDS_P1;SDS_P2;PMS_P1;PMS_P2;Temp;Humidity;BMP_temperature;BMP_pressure;BME280_temperature;BME280_humidity;BME280_pressure;Samples;Min_cycle;Max_cycle;Signal;HPM_P1;HPM_P2
2022/07/03 00:00:30;;;;;;;1.77;1.43;;;;;;;18.20;100.00;100381.50;4965144;28;20199;-76
2022/07/03 00:02:56;;;;;;;1.50;1.40;;;;;;;18.15;100.00;100388.66;4967197;28;20931;-74
2022/07/03 00:05:21;;;;;;;1.50;1.10;;;;;;;18.08;100.00;100392.41;4967163;28;20297;-75
2022/07/03 00:07:47;;;;;;;1.47;1.37;;;;;;;18.03;100.00;100392.59;4963253;28;20966;-75
2022/07/03 00:10:12;;;;;;;2.23;1.40;;;;;;;18.00;100.00;100394.50;4982663;28;20197;-75
2022/07/03 00:12:38;;;;;;;1.50;1.40;;;;;;;17.97;100.00;100390.19;4966375;28;20185;-76
2022/07/03 00:15:04;;;;;;;1.47;1.37;;;;;;;17.95;100.00;100397.25;4964315;28;20221;-75
2022/07/03 00:17:29;;;;;;;1.40;1.30;;;;;;;17.92;100.00;100390.34;4965580;28;20198;-76
2022/07/03 00:19:55;;;;;;;1.30;1.20;;;;;;;17.90;100.00;100393.94;4966900;28;20194;-75
2022/07/03 00:22:23;;;;;;;2.10;1.30;;;;;;;17.88;100.00;100395.78;4961256;28;20193;-76
2022/07/03 00:25:00;;;;;;;1.23;1.17;;;;;;;17.86;100.00;100400.19;4963546;28;20222;-75
2022/07/03 00:27:25;;;;;;;1.40;1.30;;;;;;;17.81;100.00;100400.38;4967403;28;20198;-75
2022/07/03 00:29:55;;;;;;;1.60;1.43;;;;;;;17.77;100.00;100391.81;4964245;28;20195;-75
2022/07/03 00:32:24;;;;;;;1.60;1.20;;;;;;;17.71;100.00;100389.41;4978125;28;20204;-75
2022/07/03 00:34:51;;;;;;;1.73;1.53;;;;;;;17.68;100.00;100392.16;4968113;28;20564;-76
2022/07/03 00:37:17;;;;;;;1.67;1.53;;;;;;;17.66;100.00;100393.97;4963872;28;20265;-75
2022/07/03 00:39:44;;;;;;;2.83;1.50;;;;;;;17.62;100.00;100395.81;4974980;28;20193;-75
2022/07/03 00:42:11;;;;;;;1.33;1.27;;;;;;;17.58;100.00;100396.88;4961273;28;20652;-76
2022/07/03 00:44:51;;;;;;;1.90;1.43;;;;;;;17.57;100.00;100403.00;4962437;28;20210;-75
2022/07/03 00:47:19;;;;;;;1.30;1.20;;;;;;;17.56;100.00;100406.53;4979774;28;20193;-75
2022/07/03 00:49:47;;;;;;;1.53;1.30;;;;;;;17.53;100.00;100393.56;4961824;28;20298;-75
2022/07/03 00:52:13;;;;;;;1.40;1.30;;;;;;;17.52;100.00;100403.19;4959987;28;20197;-76
2022/07/03 00:54:44;;;;;;;1.60;1.50;;;;;;;17.52;100.00;100405.78;4959864;28;20232;-74
2022/07/03 00:57:14;;;;;;;1.50;1.40;;;;;;;17.54;100.00;100402.28;4967241;28;20246;-75
2022/07/03 00:59:40;;;;;;;1.60;1.50;;;;;;;17.55;100.00;100409.19;4963697;28;20235;-76
2022/07/03 01:02:08;;;;;;;1.40;1.30;;;;;;;17.57;100.00;100402.13;4963336;28;20195;-75
2022/07/03 01:04:43;;;;;;;1.40;1.30;;;;;;;17.60;100.00;100402.91;4959620;28;20204;-75
2022/07/03 01:07:25;;;;;;;1.70;1.60;;;;;;;17.63;100.00;100413.22;4966869;28;20280;-76
2022/07/03 01:10:04;;;;;;;1.70;1.40;;;;;;;17.68;100.00;100411.31;4963785;28;20263;-75
2022/07/03 01:12:50;;;;;;;1.67;1.57;;;;;;;17.76;100.00;100416.25;4964111;28;20230;-76
2022/07/03 01:15:40;;;;;;;1.57;1.40;;;;;;;17.83;100.00;100414.28;4976461;28;20215;-76
2022/07/03 01:18:45;;;;;;;2.27;1.57;;;;;;;17.86;100.00;100410.69;4960290;28;20201;-76
2022/07/03 01:21:17;;;;;;;1.83;1.33;;;;;;;17.86;100.00;100408.06;4904819;29;20854;-75
2022/07/03 01:24:02;;;;;;;1.50;1.40;;;;;;;17.85;100.00;100401.97;4952807;28;20909;-75
2022/07/03 01:26:33;;;;;;;1.43;1.33;;;;;;;17.85;100.00;100403.75;4960614;28;20205;-75
2022/07/03 01:29:06;;;;;;;1.50;1.40;;;;;;;17.83;100.00;100403.81;4964103;28;20193;-75
2022/07/03 01:31:32;;;;;;;1.50;1.40;;;;;;;17.83;100.00;100407.28;4960828;28;20258;-76
2022/07/03 01:33:59;;;;;;;1.63;1.27;;;;;;;17.82;100.00;100399.47;4964491;28;20236;-75
2022/07/03 01:36:28;;;;;;;1.73;1.63;;;;;;;17.79;100.00;100394.34;4970585;28;20244;-75
2022/07/03 01:38:56;;;;;;;2.20;2.00;;;;;;;17.77;100.00;100398.81;4965101;28;20666;-76
2022/07/03 01:41:24;;;;;;;1.50;1.40;;;;;;;17.74;100.00;100389.28;4964290;28;20182;-76
2022/07/03 01:43:57;;;;;;;1.63;1.53;;;;;;;17.72;100.00;100392.88;4966781;28;20231;-77
2022/07/03 01:46:30;;;;;;;1.40;1.30;;;;;;;17.68;100.00;100390.38;4974410;28;20209;-75
2022/07/03 01:48:57;;;;;;;1.63;1.53;;;;;;;17.66;100.00;100388.72;4961910;28;20252;-76
2022/07/03 01:51:23;;;;;;;1.50;1.40;;;;;;;17.65;100.00;100384.41;4958965;28;20189;-75
2022/07/03 01:53:50;;;;;;;1.50;1.40;;;;;;;17.61;100.00;100380.19;4981943;28;20220;-75
2022/07/03 01:56:18;;;;;;;1.60;1.50;;;;;;;17.57;100.00;100379.47;4960052;28;20592;-76
2022/07/03 01:58:44;;;;;;;1.40;1.30;;;;;;;17.53;100.00;100380.47;4960907;28;20247;-74
2022/07/03 02:01:24;;;;;;;2.90;1.53;;;;;;;17.51;100.00;100383.16;4963203;28;20198;-75
2022/07/03 02:04:10;;;;;;;1.43;1.33;;;;;;;17.47;100.00;100378.94;4975500;28;20186;-75
2022/07/03 02:06:50;;;;;;;1.70;1.60;;;;;;;17.43;100.00;100379.94;5001391;23;20294;-76
2022/07/03 02:09:18;;;;;;;1.40;1.30;;;;;;;17.37;100.00;100370.56;4982897;28;20212;-74
2022/07/03 02:11:45;;;;;;;1.43;1.33;;;;;;;17.34;100.00;100383.75;4980699;28;20193;-75
2022/07/03 02:14:13;;;;;;;1.50;1.40;;;;;;;17.32;100.00;100382.94;4980104;28;20221;-75
2022/07/03 02:17:04;;;;;;;1.53;1.43;;;;;;;17.31;100.00;100388.25;4968239;28;20183;-75
2022/07/03 02:19:52;;;;;;;1.47;1.37;;;;;;;17.25;100.00;100386.69;4959339;28;20195;-75
2022/07/03 02:22:41;;;;;;;1.40;1.30;;;;;;;17.20;100.00;100380.75;4963671;28;20265;-75
2022/07/03 02:25:15;;;;;;;1.30;1.20;;;;;;;17.16;100.00;100382.63;4966998;28;20218;-75
2022/07/03 02:27:56;;;;;;;1.87;1.20;;;;;;;17.12;100.00;100385.41;4969137;28;20792;-75
2022/07/03 02:30:23;;;;;;;1.50;1.40;;;;;;;17.05;100.00;100383.00;4964253;28;20181;-75
2022/07/03 02:32:51;;;;;;;1.20;1.10;;;;;;;17.02;100.00;100395.34;4968554;28;20224;-75
2022/07/03 02:35:29;;;;;;;2.03;1.20;;;;;;;16.99;100.00;100393.69;4963895;28;20214;-75
2022/07/03 02:38:06;;;;;;;1.50;1.30;;;;;;;16.96;100.00;100393.78;4975397;28;20185;-76
2022/07/03 02:40:50;;;;;;;1.40;1.30;;;;;;;16.91;100.00;100393.91;4984465;28;20697;-75
2022/07/03 02:44:03;;;;;;;1.30;1.20;;;;;;;16.89;100.00;100400.09;4969729;28;20200;-75
2022/07/03 02:46:48;;;;;;;1.27;1.17;;;;;;;16.87;100.00;100396.66;4962346;28;20217;-75
2022/07/03 02:49:32;;;;;;;1.37;1.27;;;;;;;16.85;100.00;100398.50;4969315;28;20186;-75
2022/07/03 02:52:27;;;;;;;1.90;1.43;;;;;;;16.84;100.00;100402.00;4970182;28;20188;-75
2022/07/03 02:54:57;;;;;;;1.37;1.27;;;;;;;16.85;100.00;100404.56;4964056;28;20829;-76
2022/07/03 02:57:22;;;;;;;1.60;1.50;;;;;;;16.83;100.00;100397.69;4966012;28;20194;-75
2022/07/03 02:59:55;;;;;;;1.43;1.33;;;;;;;16.84;100.00;100397.63;4966301;28;20327;-75
2022/07/03 03:02:36;;;;;;;1.80;1.70;;;;;;;16.83;100.00;100403.75;4977877;28;20196;-74
2022/07/03 03:05:25;;;;;;;1.50;1.40;;;;;;;16.83;100.00;100406.38;4965465;28;20585;-75
2022/07/03 03:08:00;;;;;;;1.40;1.30;;;;;;;16.83;100.00;100405.53;4970924;28;20202;-75
2022/07/03 03:10:25;;;;;;;1.50;1.40;;;;;;;16.81;100.00;100409.94;4967403;28;20715;-76
2022/07/03 03:13:12;;;;;;;1.40;1.30;;;;;;;16.76;100.00;100416.19;4963511;28;20204;-75
2022/07/03 03:15:38;;;;;;;2.20;1.70;;;;;;;16.73;100.00;100420.66;4966840;28;20212;-75
2022/07/03 03:18:11;;;;;;;1.30;1.20;;;;;;;16.69;100.00;100424.25;4966867;28;20195;-76
2022/07/03 03:20:38;;;;;;;1.53;1.37;;;;;;;16.64;100.00;100420.97;4963635;28;20191;-77
2022/07/03 03:23:32;;;;;;;1.77;1.47;;;;;;;16.61;100.00;100414.94;4959642;28;20800;-75
2022/07/03 03:25:59;;;;;;;1.40;1.30;;;;;;;16.60;100.00;100420.19;4967147;28;20674;-77
2022/07/03 03:28:25;;;;;;;1.27;1.17;;;;;;;16.58;100.00;100417.63;4984112;28;20218;-76
2022/07/03 03:30:50;;;;;;;1.63;1.53;;;;;;;16.61;100.00;100416.66;4965114;28;20186;-76
2022/07/03 03:33:16;;;;;;;1.70;1.60;;;;;;;16.63;100.00;100416.66;4963939;28;20229;-76
2022/07/03 03:35:42;;;;;;;1.30;1.20;;;;;;;16.65;100.00;100425.25;4959085;28;20216;-76
2022/07/03 03:38:08;;;;;;;1.40;1.30;;;;;;;16.67;100.00;100424.31;4963380;28;20202;-76
2022/07/03 03:40:34;;;;;;;1.40;1.23;;;;;;;16.70;100.00;100428.59;4965482;28;20929;-76
2022/07/03 03:43:00;;;;;;;1.50;1.40;;;;;;;16.73;100.00;100424.09;4965087;28;20182;-76
2022/07/03 03:45:26;;;;;;;1.50;1.40;;;;;;;16.77;100.00;100436.19;4980990;28;20220;-75
2022/07/03 03:47:52;;;;;;;1.53;1.43;;;;;;;16.83;100.00;100434.28;4968709;28;20623;-75
2022/07/03 03:50:18;;;;;;;1.40;1.30;;;;;;;16.90;100.00;100425.31;4959336;28;20233;-75
2022/07/03 03:52:43;;;;;;;1.40;1.30;;;;;;;16.98;100.00;100432.94;4965295;28;20188;-74
2022/07/03 03:55:09;;;;;;;1.67;1.40;;;;;;;17.08;100.00;100439.59;4962710;28;20272;-76
2022/07/03 03:57:34;;;;;;;1.50;1.40;;;;;;;17.18;100.00;100438.38;4964994;28;20202;-76
2022/07/03 04:00:00;;;;;;;1.40;1.30;;;;;;;17.61;100.00;100438.63;4963717;28;20293;-75
2022/07/03 04:02:28;;;;;;;1.47;1.37;;;;;;;18.53;100.00;100449.16;4965402;28;20186;-77
2022/07/03 04:04:54;;;;;;;1.90;1.30;;;;;;;19.27;100.00;100441.84;4963618;28;20217;-75
2022/07/03 04:07:19;;;;;;;1.30;1.20;;;;;;;19.66;100.00;100454.16;4977272;28;20194;-76
2022/07/03 04:09:45;;;;;;;1.43;1.33;;;;;;;19.63;100.00;100446.41;4978092;28;20271;-76
2022/07/03 04:12:11;;;;;;;1.27;1.10;;;;;;;19.39;100.00;100451.81;4968841;28;20202;-76
2022/07/03 04:14:37;;;;;;;1.30;1.20;;;;;;;19.12;100.00;100449.47;4969635;28;20273;-76
2022/07/03 04:17:03;;;;;;;1.27;1.03;;;;;;;18.93;100.00;100457.19;5101266;22;20205;-92
2022/07/03 04:19:28;;;;;;;1.50;1.40;;;;;;;18.80;100.00;100454.25;5016530;28;20169;-93
2022/07/03 04:21:57;;;;;;;1.40;1.30;;;;;;;18.83;100.00;100461.13;5035639;28;20156;-94
2022/07/03 04:24:23;;;;;;;1.47;1.37;;;;;;;19.09;100.00;100459.22;5011967;28;20203;-91
2022/07/03 04:26:49;;;;;;;1.60;1.50;;;;;;;19.63;98.05;100462.16;5000427;28;20209;-93
2022/07/03 04:29:14;;;;;;;1.60;1.50;;;;;;;19.68;97.69;100456.69;5002534;28;20195;-93
2022/07/03 04:31:41;;;;;;;1.30;1.20;;;;;;;19.65;97.84;100461.19;5000331;28;20175;-92
2022/07/03 04:34:06;;;;;;;1.50;1.40;;;;;;;19.55;97.95;100464.28;4997190;28;20215;-92
2022/07/03 04:36:32;;;;;;;1.33;1.23;;;;;;;19.46;98.55;100465.53;4996500;28;20175;-92
2022/07/03 04:38:57;;;;;;;1.40;1.30;;;;;;;19.45;98.96;100461.19;5004109;22;20654;-76
2022/07/03 04:41:23;;;;;;;1.43;1.33;;;;;;;19.52;99.27;100467.88;4985129;28;21136;-75
2022/07/03 04:43:48;;;;;;;1.30;1.20;;;;;;;20.01;98.71;100464.88;4983076;28;20736;-76
2022/07/03 04:46:14;;;;;;;2.60;1.33;;;;;;;21.47;94.78;100471.03;4971629;28;20254;-77
2022/07/03 04:48:39;;;;;;;1.40;1.30;;;;;;;23.17;88.70;100465.31;4965686;28;20198;-76
2022/07/03 04:51:07;;;;;;;1.30;1.20;;;;;;;24.61;84.67;100464.44;4967435;28;20197;-76
2022/07/03 04:53:33;;;;;;;1.40;1.00;;;;;;;25.94;80.21;100465.25;4965295;28;20198;-75
2022/07/03 04:55:58;;;;;;;1.43;1.10;;;;;;;26.88;76.67;100453.16;4965385;28;20244;-77
2022/07/03 04:58:23;;;;;;;2.37;1.47;;;;;;;27.58;74.73;100463.84;4968316;28;20202;-75
2022/07/03 05:00:49;;;;;;;1.73;1.20;;;;;;;28.34;73.49;100463.16;4969869;28;20185;-75
2022/07/03 05:03:14;;;;;;;1.10;1.00;;;;;;;29.10;71.77;100461.44;4971662;28;20174;-75
2022/07/03 05:05:40;;;;;;;1.27;1.17;;;;;;;29.62;70.15;100457.00;4971115;28;20233;-76
2022/07/03 05:08:06;;;;;;;0.83;0.83;;;;;;;30.17;69.15;100466.44;4965454;28;20194;-77
2022/07/03 05:10:31;;;;;;;1.20;1.00;;;;;;;30.64;67.76;100460.47;4969792;28;20216;-76
2022/07/03 05:12:57;;;;;;;1.00;0.93;;;;;;;31.14;66.91;100467.50;4959029;28;20210;-76
2022/07/03 05:15:23;;;;;;;0.90;0.90;;;;;;;31.61;66.13;100463.97;4962008;28;20263;-75
2022/07/03 05:17:48;;;;;;;1.30;1.20;;;;;;;32.07;65.30;100461.38;4966520;28;20232;-76
2022/07/03 05:20:29;;;;;;;1.17;1.07;;;;;;;32.61;64.13;100460.59;4964219;28;20721;-76
2022/07/03 05:22:59;;;;;;;1.00;1.00;;;;;;;33.07;62.91;100459.66;4965417;28;20189;-75
2022/07/03 05:25:25;;;;;;;1.85;1.10;;;;;;;33.41;62.60;100462.41;4961023;28;20920;-76
2022/07/03 05:27:52;;;;;;;1.05;0.95;;;;;;;33.79;62.09;100455.88;4965586;28;20297;-76
2022/07/03 05:30:19;;;;;;;1.20;1.10;;;;;;;34.16;61.17;100458.19;4964405;28;20565;-76
2022/07/03 05:32:45;;;;;;;1.20;1.10;;;;;;;34.40;59.94;100464.59;4962804;28;20201;-77
2022/07/03 05:35:10;;;;;;;1.23;0.75;;;;;;;34.44;59.82;100463.31;5003868;22;20236;-77
2022/07/03 05:37:36;;;;;;;1.00;1.00;;;;;;;34.73;59.60;100459.28;4979421;28;20188;-77
2022/07/03 05:40:05;;;;;;;1.30;1.20;;;;;;;35.02;59.03;100460.63;4981543;28;20719;-75
2022/07/03 05:42:31;;;;;;;1.00;1.00;;;;;;;35.18;58.20;100451.69;4985055;28;21230;-76
2022/07/03 05:44:57;;;;;;;1.20;1.10;;;;;;;35.20;58.55;100456.91;4969552;28;20227;-75
2022/07/03 05:47:22;;;;;;;1.40;1.17;;;;;;;35.47;57.18;100458.38;4962889;28;20189;-73
2022/07/03 05:49:47;;;;;;;1.00;1.00;;;;;;;35.46;57.64;100462.09;4965117;28;20591;-73
2022/07/03 05:52:13;;;;;;;1.13;1.13;;;;;;;35.55;56.97;100460.19;4964444;28;21042;-75
2022/07/03 05:54:39;;;;;;;1.30;1.20;;;;;;;35.56;57.25;100461.88;4978994;28;20222;-74
2022/07/03 05:57:05;;;;;;;1.10;1.10;;;;;;;35.74;57.37;100467.03;4959799;28;20189;-74
2022/07/03 05:59:30;;;;;;;1.88;1.10;;;;;;;36.08;57.01;100465.03;4958149;28;20193;-73
2022/07/03 06:01:55;;;;;;;1.02;1.00;;;;;;;36.42;56.90;100470.00;4973409;28;20193;-74
2022/07/03 06:04:21;;;;;;;1.85;1.10;;;;;;;36.76;55.89;100479.56;4993148;28;20193;-77
2022/07/03 06:06:46;;;;;;;1.77;1.08;;;;;;;36.70;55.20;100474.88;4978220;28;20942;-75
2022/07/03 06:09:12;;;;;;;1.75;1.40;;;;;;;36.69;55.46;100470.50;4987022;28;20184;-75
2022/07/03 06:11:37;;;;;;;1.10;1.00;;;;;;;36.63;55.60;100479.34;4998702;28;20201;-74
2022/07/03 06:14:02;;;;;;;1.40;1.30;;;;;;;36.63;55.04;100475.78;4974568;28;20229;-77
2022/07/03 06:16:28;;;;;;;1.25;1.00;;;;;;;36.74;54.04;100481.59;4974393;28;20209;-76
2022/07/03 06:18:53;;;;;;;1.30;1.20;;;;;;;36.44;54.72;100483.38;4974979;28;20574;-76
2022/07/03 06:21:19;;;;;;;1.25;1.15;;;;;;;36.44;54.89;100484.19;4969811;28;20186;-76
2022/07/03 06:23:44;;;;;;;3.30;1.30;;;;;;;36.63;54.23;100486.56;4969108;28;20695;-75
2022/07/03 06:26:09;;;;;;;1.38;1.25;;;;;;;36.41;54.60;100491.75;4973288;28;20206;-76
2022/07/03 06:28:35;;;;;;;1.45;1.35;;;;;;;36.49;55.13;100493.59;4971760;28;20191;-75
2022/07/03 06:31:00;;;;;;;2.28;1.63;;;;;;;36.63;55.22;100484.72;4973658;28;20268;-76
2022/07/03 06:33:26;;;;;;;2.35;1.40;;;;;;;36.77;54.20;100493.88;4979426;28;20198;-76
2022/07/03 06:35:51;;;;;;;2.40;1.10;;;;;;;36.61;54.33;100497.53;4974472;28;20233;-75
2022/07/03 06:38:16;;;;;;;1.05;1.05;;;;;;;36.52;54.88;100504.03;4992596;28;20258;-77
2022/07/03 06:40:42;;;;;;;1.52;1.25;;;;;;;36.61;55.29;100498.38;4990815;28;20208;-74
2022/07/03 06:43:08;;;;;;;0.98;0.98;;;;;;;36.84;55.00;100502.06;4986208;28;20181;-75
2022/07/03 06:45:34;;;;;;;1.20;1.10;;;;;;;36.85;54.10;100493.81;4965762;28;20213;-75
2022/07/03 06:47:59;;;;;;;2.08;1.20;;;;;;;36.72;54.93;100499.81;4975159;28;20209;-74
2022/07/03 06:50:25;;;;;;;1.50;1.38;;;;;;;36.62;55.01;100501.91;4987493;28;20245;-76
2022/07/03 06:52:50;;;;;;;1.33;1.20;;;;;;;36.68;54.64;100503.88;4972362;28;20196;-75
2022/07/03 06:55:17;;;;;;;1.35;1.25;;;;;;;36.64;54.72;100505.28;4966341;28;20249;-75
2022/07/03 06:57:43;;;;;;;1.75;1.35;;;;;;;36.58;54.52;100500.59;4966369;28;20193;-75
2022/07/03 07:00:09;;;;;;;1.77;1.20;;;;;;;36.55;54.99;100487.47;4966323;28;20200;-74
2022/07/03 07:02:37;;;;;;;2.72;1.10;;;;;;;36.59;54.99;100494.19;4971764;28;20673;-74
2022/07/03 07:05:03;;;;;;;2.70;1.10;;;;;;;36.56;54.48;100487.31;4981820;28;20253;-75
2022/07/03 07:07:29;;;;;;;1.40;1.30;;;;;;;36.36;54.58;100489.63;4967531;28;20218;-74
2022/07/03 07:09:54;;;;;;;2.30;0.90;;;;;;;36.28;54.84;100482.41;4969756;28;20185;-74
2022/07/03 07:12:20;;;;;;;1.08;0.93;;;;;;;36.19;54.53;100479.94;4961712;28;20281;-77
2022/07/03 07:14:45;;;;;;;1.23;1.13;;;;;;;36.03;54.31;100475.47;4963601;28;20237;-74
2022/07/03 07:17:10;;;;;;;1.20;1.02;;;;;;;35.90;54.50;100473.34;4961481;28;20280;-76
2022/07/03 07:19:36;;;;;;;1.98;1.48;;;;;;;35.85;55.11;100476.53;4966910;28;20224;-75
2022/07/03 07:22:02;;;;;;;1.25;1.15;;;;;;;35.85;54.70;100481.94;4969360;28;20256;-75
2022/07/03 07:24:28;;;;;;;0.90;0.90;;;;;;;35.94;54.94;100469.28;4966622;28;20253;-76
2022/07/03 07:26:54;;;;;;;2.65;1.27;;;;;;;35.94;55.12;100480.03;4966768;28;20237;-75
2022/07/03 07:29:19;;;;;;;1.42;1.00;;;;;;;35.85;54.35;100479.25;4969782;28;20194;-74
2022/07/03 07:31:44;;;;;;;1.58;1.00;;;;;;;35.58;54.43;100475.16;4983321;28;20190;-75
2022/07/03 07:34:10;;;;;;;1.95;0.98;;;;;;;35.48;54.70;100484.25;4962945;28;20205;-75
2022/07/03 07:36:35;;;;;;;1.02;0.93;;;;;;;35.47;55.71;100477.19;4961156;28;20616;-75
2022/07/03 07:39:01;;;;;;;1.73;1.00;;;;;;;35.51;55.50;100477.72;4967682;28;20189;-76
2022/07/03 07:41:26;;;;;;;0.90;0.90;;;;;;;35.52;55.01;100477.53;4963807;28;20813;-75
2022/07/03 07:43:51;;;;;;;2.10;0.90;;;;;;;35.43;54.46;100477.69;4964688;28;20186;-75
2022/07/03 07:46:17;;;;;;;1.20;0.85;;;;;;;35.21;54.62;100480.13;4964314;28;20979;-75
2022/07/03 07:48:42;;;;;;;1.80;1.10;;;;;;;35.12;54.58;100473.06;4979519;28;20182;-74
2022/07/03 07:51:08;;;;;;;0.85;0.85;;;;;;;35.07;54.85;100473.56;4966560;28;20195;-75
2022/07/03 07:53:33;;;;;;;1.17;1.02;;;;;;;35.00;54.22;100469.91;4981786;28;20233;-73
2022/07/03 07:55:58;;;;;;;1.27;0.95;;;;;;;34.88;54.44;100472.88;4966330;28;20296;-76
2022/07/03 07:58:24;;;;;;;1.13;0.93;;;;;;;34.83;54.27;100474.41;4976884;28;20274;-75
2022/07/03 08:06:17;;;;;;;1.00;0.98;;;;;;;34.19;55.35;100475.81;4965994;28;20248;-74
2022/07/03 08:08:43;;;;;;;2.42;1.17;;;;;;;34.09;55.43;100475.97;4965764;28;20575;-74
2022/07/03 08:11:08;;;;;;;1.13;0.88;;;;;;;33.98;55.29;100469.03;4966514;28;20197;-74
2022/07/03 08:13:33;;;;;;;1.88;1.00;;;;;;;33.81;55.11;100475.31;4962538;28;20832;-75
2022/07/03 08:15:59;;;;;;;1.30;1.08;;;;;;;33.65;56.11;100479.66;4963633;28;20210;-74
2022/07/03 08:18:24;;;;;;;0.80;0.80;;;;;;;33.55;56.28;100481.59;4980294;28;20192;-75
2022/07/03 08:20:50;;;;;;;0.90;0.90;;;;;;;33.44;56.96;100471.97;4976333;28;20192;-75
2022/07/03 08:23:16;;;;;;;1.75;1.15;;;;;;;33.26;57.57;100470.19;4963388;28;20265;-76
2022/07/03 08:25:41;;;;;;;1.17;1.08;;;;;;;33.11;58.21;100483.31;4966644;28;20213;-74
2022/07/03 08:28:07;;;;;;;1.30;1.20;;;;;;;32.92;58.46;100478.13;4967740;28;20190;-75
2022/07/03 08:30:32;;;;;;;1.17;1.08;;;;;;;32.72;58.98;100480.97;4964951;28;20259;-75
2022/07/03 08:32:58;;;;;;;1.45;1.10;;;;;;;32.46;59.63;100480.88;4966897;28;20623;-73
2022/07/03 08:35:24;;;;;;;1.25;1.13;;;;;;;32.20;59.48;100474.41;4982611;28;20218;-76
2022/07/03 08:37:49;;;;;;;1.30;1.00;;;;;;;31.99;59.63;100473.84;4969632;28;20201;-74
2022/07/03 08:40:16;;;;;;;1.67;1.08;;;;;;;31.80;60.02;100474.75;4966498;28;20207;-76
2022/07/03 08:42:48;;;;;;;2.53;0.93;;;;;;;31.63;59.89;100467.34;4965215;28;20197;-77
2022/07/03 08:45:15;;;;;;;1.08;0.90;;;;;;;31.47;59.66;100475.16;4961902;28;20312;-75
2022/07/03 08:47:43;;;;;;;1.00;0.93;;;;;;;31.34;59.74;100472.78;4970123;28;20225;-77
2022/07/03 08:50:10;;;;;;;0.80;0.80;;;;;;;31.22;60.13;100472.13;4964348;28;20601;-76
2022/07/03 08:52:35;;;;;;;1.23;1.00;;;;;;;31.10;60.65;100470.56;4964380;28;20279;-76
2022/07/03 08:55:03;;;;;;;1.03;0.90;;;;;;;30.90;61.68;100470.59;4960657;28;20249;-76
2022/07/03 08:57:32;;;;;;;1.30;0.80;;;;;;;30.66;61.99;100468.38;4964093;28;20691;-76
2022/07/03 09:00:00;;;;;;;1.37;1.20;;;;;;;30.40;62.06;100477.72;4959645;28;20189;-75
2022/07/03 09:02:27;;;;;;;1.20;0.97;;;;;;;30.18;62.19;100470.81;4964215;28;20246;-75
2022/07/03 09:04:52;;;;;;;0.90;0.90;;;;;;;30.01;62.34;100469.66;4963048;28;20216;-76
2022/07/03 09:07:19;;;;;;;0.70;0.70;;;;;;;29.88;61.79;100469.00;4965297;28;20210;-76
2022/07/03 09:09:44;;;;;;;1.00;0.90;;;;;;;29.78;61.51;100466.31;4961635;28;20220;-76
2022/07/03 09:12:10;;;;;;;2.10;1.13;;;;;;;29.66;61.68;100469.06;4960704;28;20190;-75
2022/07/03 09:14:38;;;;;;;1.03;0.87;;;;;;;29.57;61.36;100464.53;4959400;28;20245;-76
2022/07/03 09:17:06;;;;;;;1.03;0.93;;;;;;;29.46;61.53;100468.13;4978463;28;20225;-76
2022/07/03 09:19:47;;;;;;;1.50;1.10;;;;;;;29.40;61.98;100474.00;4969678;28;20186;-75
2022/07/03 09:22:24;;;;;;;2.43;1.23;;;;;;;29.38;61.84;100473.28;4967244;28;21802;-74
2022/07/03 09:24:52;;;;;;;1.00;1.00;;;;;;;29.35;61.89;100470.88;4960095;28;21177;-74
2022/07/03 09:27:20;;;;;;;1.30;1.10;;;;;;;29.33;62.05;100468.31;4960203;28;20197;-76
2022/07/03 09:30:05;;;;;;;1.00;0.90;;;;;;;29.34;62.05;100471.81;4964918;28;20213;-75
2022/07/03 09:32:32;;;;;;;1.57;0.90;;;;;;;29.33;60.71;100464.78;4968237;28;21887;-75
2022/07/03 09:35:22;;;;;;;0.80;0.80;;;;;;;29.33;61.69;100462.13;4961900;28;20381;-76
2022/07/03 09:37:56;;;;;;;1.60;0.97;;;;;;;29.36;61.43;100464.56;4962184;28;20316;-76
2022/07/03 09:40:24;;;;;;;1.40;1.00;;;;;;;29.36;60.52;100464.56;4962518;28;20676;-76
2022/07/03 09:43:03;;;;;;;1.10;0.80;;;;;;;29.33;60.56;100463.00;4979042;28;20188;-76
2022/07/03 09:45:58;;;;;;;1.00;0.83;;;;;;;29.28;60.74;100461.66;4966418;28;20259;-77
2022/07/03 09:48:28;;;;;;;1.27;1.10;;;;;;;29.30;60.72;100460.59;4962874;28;20281;-76
2022/07/03 09:51:15;;;;;;;2.40;0.80;;;;;;;29.34;61.13;100461.16;4970686;28;20200;-75
2022/07/03 09:53:51;;;;;;;1.33;0.87;;;;;;;29.36;61.05;100453.91;4969122;28;20736;-74
2022/07/03 09:56:17;;;;;;;1.80;0.80;;;;;;;29.33;60.67;100451.47;4964369;28;20309;-75
2022/07/03 09:59:21;;;;;;;0.97;0.87;;;;;;;29.23;59.03;100447.91;4963646;28;20237;-74
2022/07/03 10:01:47;;;;;;;0.93;0.80;;;;;;;29.11;59.96;100457.78;4977096;28;20185;-76
2022/07/03 10:04:18;;;;;;;1.80;0.93;;;;;;;29.04;60.01;100449.47;4979835;28;20675;-76
2022/07/03 10:06:47;;;;;;;1.17;0.90;;;;;;;29.08;60.70;100450.91;4967084;28;20209;-76
2022/07/03 10:09:14;;;;;;;1.30;1.03;;;;;;;29.13;60.47;100440.69;4971222;28;20193;-76
2022/07/03 10:11:41;;;;;;;1.37;1.00;;;;;;;29.20;60.56;100446.34;4960038;28;20182;-75
2022/07/03 10:14:07;;;;;;;0.80;0.80;;;;;;;29.22;60.76;100446.22;4963234;28;20229;-76
2022/07/03 10:16:34;;;;;;;1.10;1.00;;;;;;;29.25;60.54;100441.47;4978151;28;20248;-76
2022/07/03 10:19:02;;;;;;;1.10;0.90;;;;;;;29.26;59.18;100445.00;4965693;28;20189;-76
2022/07/03 10:21:29;;;;;;;1.23;0.80;;;;;;;29.16;59.39;100443.09;4965884;28;20755;-76
2022/07/03 10:23:55;;;;;;;1.50;1.00;;;;;;;29.20;60.39;100444.53;4965873;28;20217;-77
2022/07/03 10:26:20;;;;;;;1.37;0.70;;;;;;;29.32;61.08;100445.31;4966499;28;20210;-75
2022/07/03 10:28:46;;;;;;;0.80;0.80;;;;;;;29.40;61.53;100441.16;4962623;28;20197;-75
2022/07/03 10:31:13;;;;;;;0.97;0.90;;;;;;;29.49;61.23;100437.72;4961763;28;20194;-76
2022/07/03 10:33:39;;;;;;;1.77;0.87;;;;;;;29.53;61.25;100435.59;4961771;28;20211;-76
2022/07/03 10:36:06;;;;;;;1.90;0.70;;;;;;;29.56;61.01;100440.69;4965183;28;20233;-78
2022/07/03 10:38:36;;;;;;;0.70;0.70;;;;;;;29.58;60.55;100433.38;4962801;28;20186;-76
2022/07/03 10:47:01;;;;;;;1.03;0.70;;;;;;;29.66;59.60;100417.56;4962834;28;20252;-75
2022/07/03 10:49:27;;;;;;;1.37;1.00;;;;;;;29.61;59.22;100419.78;4966968;28;20217;-75
2022/07/03 10:51:58;;;;;;;1.70;0.80;;;;;;;29.61;59.29;100423.28;4966105;28;20279;-76
2022/07/03 10:54:25;;;;;;;1.03;0.90;;;;;;;29.65;59.28;100419.34;4968287;28;20220;-75
2022/07/03 10:57:00;;;;;;;1.33;0.93;;;;;;;29.71;59.29;100420.66;4966219;28;20190;-76
2022/07/03 10:59:31;;;;;;;0.70;0.70;;;;;;;29.73;58.41;100415.19;4973434;28;20280;-76
2022/07/03 11:02:34;;;;;;;0.70;0.70;;;;;;;29.69;58.77;100419.09;4960456;28;20349;-75
2022/07/03 11:04:59;;;;;;;0.90;0.90;;;;;;;29.71;58.62;100420.66;4965953;28;20647;-76
2022/07/03 11:07:38;;;;;;;2.87;0.80;;;;;;;29.75;58.34;100416.72;4965949;28;20194;-75
2022/07/03 11:10:24;;;;;;;0.97;0.70;;;;;;;29.80;57.34;100414.50;4963328;28;20193;-76
2022/07/03 11:12:55;;;;;;;0.83;0.73;;;;;;;29.84;57.55;100414.25;4951629;28;20676;-75
2022/07/03 11:15:30;;;;;;;0.90;0.70;;;;;;;29.87;57.62;100416.66;4965356;28;20307;-76
2022/07/03 11:18:05;;;;;;;1.07;0.70;;;;;;;29.97;57.20;100406.84;4976771;28;20186;-76
2022/07/03 11:20:32;;;;;;;1.10;0.80;;;;;;;29.95;56.58;100409.66;4984756;28;20895;-75
2022/07/03 11:23:13;;;;;;;1.83;0.90;;;;;;;30.01;57.31;100402.94;4973316;28;20287;-79
2022/07/03 11:25:38;;;;;;;1.63;0.80;;;;;;;30.02;57.34;100406.44;4965757;28;20213;-75
2022/07/03 11:28:03;;;;;;;0.97;0.80;;;;;;;30.00;57.01;100392.38;4979538;28;20204;-75
2022/07/03 11:30:29;;;;;;;0.70;0.70;;;;;;;29.94;56.77;100388.41;4966845;28;20194;-75
2022/07/03 11:32:57;;;;;;;1.70;0.80;;;;;;;30.01;57.71;100394.06;4981477;28;20186;-75
2022/07/03 11:35:49;;;;;;;0.90;0.80;;;;;;;30.00;56.58;100387.91;4971355;28;20271;-75
2022/07/03 11:38:22;;;;;;;0.73;0.73;;;;;;;29.91;56.54;100380.69;4969826;28;20194;-75
2022/07/03 11:40:51;;;;;;;0.63;0.63;;;;;;;29.93;56.58;100392.94;4964717;28;20557;-75
2022/07/03 11:43:17;;;;;;;0.70;0.70;;;;;;;29.94;57.12;100386.63;4957308;28;20182;-75